createdAt,value
2022-10-23T00:00:50.618Z,0.00
2022-10-23T00:01:50.527Z,0.00
2022-10-23T00:02:50.556Z,0.00
2022-10-23T00:03:50.501Z,0.00
2022-10-23T00:04:50.518Z,0.00
2022-10-23T00:05:50.479Z,0.00
2022-10-23T00:06:50.484Z,0.00
2022-10-23T00:07:50.444Z,0.00
2022-10-23T00:08:50.428Z,0.00
2022-10-23T00:09:50.416Z,0.00
2022-10-23T00:10:51.119Z,0.00
2022-10-23T00:11:50.380Z,0.00
2022-10-23T00:12:50.400Z,0.00
2022-10-23T00:13:50.370Z,0.00
2022-10-23T00:14:50.352Z,0.00
2022-10-23T00:16:50.334Z,0.00
2022-10-23T00:17:50.323Z,0.00
2022-10-23T00:18:50.340Z,0.00
2022-10-23T00:19:50.295Z,0.00
2022-10-23T00:20:51.233Z,0.00
2022-10-23T00:21:50.266Z,0.00
2022-10-23T00:22:50.253Z,0.00
2022-10-23T00:23:50.244Z,0.00
2022-10-23T00:24:50.248Z,0.00
2022-10-23T00:25:50.205Z,0.00
2022-10-23T00:26:50.204Z,0.00
2022-10-23T00:27:50.186Z,0.00
2022-10-23T00:28:50.180Z,0.00
2022-10-23T00:29:50.155Z,0.00
2022-10-23T00:30:50.175Z,0.00
2022-10-23T00:31:50.139Z,0.00
2022-10-23T00:32:50.128Z,0.00
2022-10-23T00:33:50.119Z,0.00
2022-10-23T00:34:50.096Z,0.00
2022-10-23T00:35:50.083Z,0.00
2022-10-23T00:36:50.918Z,0.00
2022-10-23T00:37:50.066Z,0.00
2022-10-23T00:38:50.060Z,0.00
2022-10-23T00:39:50.030Z,0.00
2022-10-23T00:41:50.031Z,0.00
2022-10-23T00:42:50.006Z,0.00
2022-10-23T00:43:49.981Z,0.00
2022-10-23T00:44:49.972Z,0.00
2022-10-23T00:45:49.954Z,0.00
2022-10-23T00:46:49.960Z,0.00
2022-10-23T00:47:50.040Z,0.00
2022-10-23T00:48:49.924Z,0.00
2022-10-23T00:49:49.905Z,0.00
2022-10-23T00:50:50.232Z,0.00
2022-10-23T00:51:49.884Z,0.00
2022-10-23T00:52:49.871Z,0.00
2022-10-23T00:54:00.967Z,0.00
2022-10-23T00:54:50.843Z,0.00
2022-10-23T00:55:49.833Z,0.00
2022-10-23T00:56:50.305Z,0.00
2022-10-23T00:57:49.803Z,0.00
2022-10-23T00:58:49.796Z,0.00
2022-10-23T00:59:50.351Z,0.00
2022-10-23T01:00:50.734Z,0.00
2022-10-23T01:01:49.872Z,0.00
2022-10-23T01:02:49.748Z,0.00
2022-10-23T01:03:49.726Z,0.00
2022-10-23T01:04:49.719Z,0.00
2022-10-23T01:05:49.741Z,0.00
2022-10-23T01:06:49.688Z,0.00
2022-10-23T01:07:49.688Z,0.00
2022-10-23T01:08:49.667Z,0.00
2022-10-23T01:09:49.649Z,0.00
2022-10-23T01:10:49.646Z,0.00
2022-10-23T01:11:49.651Z,0.00
2022-10-23T01:12:49.609Z,0.00
2022-10-23T01:13:49.594Z,0.00
2022-10-23T01:14:49.622Z,0.00
2022-10-23T01:15:49.572Z,0.00
2022-10-23T01:16:49.650Z,0.00
2022-10-23T01:17:50.045Z,0.00
2022-10-23T01:18:49.532Z,0.00
2022-10-23T01:19:49.513Z,0.00
2022-10-23T01:20:49.512Z,0.00
2022-10-23T01:21:49.489Z,0.00
2022-10-23T01:22:49.494Z,0.00
2022-10-23T01:23:49.578Z,0.00
2022-10-23T01:24:49.454Z,0.00
2022-10-23T01:25:49.434Z,0.00
2022-10-23T01:26:49.423Z,0.00
2022-10-23T01:27:49.417Z,0.00
2022-10-23T01:28:49.402Z,0.00
2022-10-23T01:29:49.416Z,0.00
2022-10-23T01:30:49.374Z,0.00
2022-10-23T01:31:49.365Z,0.00
2022-10-23T01:32:49.345Z,0.00
2022-10-23T01:33:49.335Z,0.00
2022-10-23T01:34:49.324Z,0.00
2022-10-23T01:35:49.415Z,0.00
2022-10-23T01:36:49.294Z,0.00
2022-10-23T01:37:49.297Z,0.00
2022-10-23T01:38:49.325Z,0.00
2022-10-23T01:39:49.266Z,0.00
2022-10-23T01:40:49.250Z,0.00
2022-10-23T01:41:49.387Z,0.00
2022-10-23T01:42:49.236Z,0.00
2022-10-23T01:43:49.204Z,0.00
2022-10-23T01:44:49.192Z,0.00
2022-10-23T01:45:49.174Z,0.00
2022-10-23T01:46:49.167Z,0.00
2022-10-23T01:47:49.163Z,0.00
2022-10-23T01:48:49.143Z,0.00
2022-10-23T01:49:49.123Z,0.00
2022-10-23T01:50:49.113Z,0.00
2022-10-23T01:51:49.102Z,0.00
2022-10-23T01:52:49.126Z,0.00
2022-10-23T01:53:49.093Z,0.00
2022-10-23T01:54:49.055Z,0.00
2022-10-23T01:55:49.058Z,0.00
2022-10-23T01:56:49.053Z,0.00
2022-10-23T01:57:49.025Z,0.00
2022-10-23T01:58:49.008Z,0.00
2022-10-23T01:59:49.425Z,0.00
2022-10-23T02:00:49.428Z,0.00
2022-10-23T02:01:49.067Z,0.00
2022-10-23T02:02:48.959Z,0.00
2022-10-23T02:03:49.057Z,0.00
2022-10-23T02:04:48.927Z,0.00
2022-10-23T02:05:49.017Z,0.00
2022-10-23T02:06:48.907Z,0.00
2022-10-23T02:07:48.898Z,0.00
2022-10-23T02:08:48.997Z,0.00
2022-10-23T02:09:48.868Z,0.00
2022-10-23T02:10:48.873Z,0.00
2022-10-23T02:11:48.859Z,0.00
2022-10-23T02:12:48.828Z,0.00
2022-10-23T02:13:48.811Z,0.00
2022-10-23T02:14:48.813Z,0.00
2022-10-23T02:15:48.790Z,0.00
2022-10-23T02:16:48.775Z,0.00
2022-10-23T02:17:48.785Z,0.00
2022-10-23T02:18:48.752Z,0.00
2022-10-23T02:19:48.735Z,0.00
2022-10-23T02:20:48.737Z,0.00
2022-10-23T02:21:48.866Z,0.00
2022-10-23T02:22:48.695Z,0.00
2022-10-23T02:23:51.400Z,0.00
2022-10-23T02:24:49.662Z,0.00
2022-10-23T02:25:48.655Z,0.00
2022-10-23T02:26:48.646Z,0.00
2022-10-23T02:27:48.642Z,0.00
2022-10-23T02:28:48.627Z,0.00
2022-10-23T02:29:48.627Z,0.00
2022-10-23T02:30:48.585Z,0.00
2022-10-23T02:31:48.585Z,0.00
2022-10-23T02:32:48.558Z,0.00
2022-10-23T02:33:48.553Z,0.00
2022-10-23T02:34:48.538Z,0.00
2022-10-23T02:35:48.546Z,0.00
2022-10-23T02:36:48.517Z,0.00
2022-10-23T02:37:48.569Z,0.00
2022-10-23T02:38:48.535Z,0.00
2022-10-23T02:39:48.469Z,0.00
2022-10-23T02:40:48.460Z,0.00
2022-10-23T02:41:48.566Z,0.00
2022-10-23T02:42:48.428Z,0.00
2022-10-23T02:43:48.692Z,0.00
2022-10-23T02:44:48.414Z,0.00
2022-10-23T02:45:48.402Z,0.00
2022-10-23T02:46:48.378Z,0.00
2022-10-23T02:47:48.392Z,0.00
2022-10-23T02:48:48.361Z,0.00
2022-10-23T02:49:48.341Z,0.00
2022-10-23T02:50:48.328Z,0.00
2022-10-23T02:51:48.322Z,0.00
2022-10-23T02:52:48.312Z,0.00
2022-10-23T02:53:48.421Z,0.00
2022-10-23T02:54:48.285Z,0.00
2022-10-23T02:55:48.270Z,0.00
2022-10-23T02:56:48.243Z,0.00
2022-10-23T02:57:48.235Z,0.00
2022-10-23T02:58:48.213Z,0.00
2022-10-23T02:59:48.234Z,0.00
2022-10-23T03:00:48.216Z,0.00
2022-10-23T03:01:48.268Z,0.00
2022-10-23T03:02:48.172Z,0.00
2022-10-23T03:03:48.157Z,0.00
2022-10-23T03:04:48.147Z,0.00
2022-10-23T03:05:48.155Z,0.00
2022-10-23T03:06:48.115Z,0.00
2022-10-23T03:07:48.115Z,0.00
2022-10-23T03:08:48.095Z,0.00
2022-10-23T03:09:48.096Z,0.00
2022-10-23T03:11:48.093Z,0.00
2022-10-23T03:12:48.044Z,0.00
2022-10-23T03:13:48.038Z,0.00
2022-10-23T03:14:48.019Z,0.00
2022-10-23T03:15:47.998Z,0.00
2022-10-23T03:16:47.994Z,0.00
2022-10-23T03:17:48.099Z,0.00
2022-10-23T03:18:47.962Z,0.00
2022-10-23T03:19:47.950Z,0.00
2022-10-23T03:20:47.929Z,0.00
2022-10-23T03:21:47.921Z,0.00
2022-10-23T03:22:48.257Z,0.00
2022-10-23T03:23:48.001Z,0.00
2022-10-23T03:24:47.880Z,0.00
2022-10-23T03:25:47.881Z,0.00
2022-10-23T03:26:47.852Z,0.00
2022-10-23T03:27:47.841Z,0.00
2022-10-23T03:28:47.835Z,0.00
2022-10-23T03:29:47.870Z,0.00
2022-10-23T03:30:47.822Z,0.00
2022-10-23T03:31:48.752Z,0.00
2022-10-23T03:32:47.785Z,0.00
2022-10-23T03:33:47.763Z,0.00
2022-10-23T03:34:47.759Z,0.00
2022-10-23T03:36:47.727Z,0.00
2022-10-23T03:37:47.727Z,0.00
2022-10-23T03:38:47.703Z,0.00
2022-10-23T03:39:47.687Z,0.00
2022-10-23T03:40:47.672Z,0.00
2022-10-23T03:41:47.719Z,0.00
2022-10-23T03:42:47.647Z,0.00
2022-10-23T03:43:47.668Z,0.00
2022-10-23T03:44:47.897Z,0.00
2022-10-23T03:45:47.609Z,0.00
2022-10-23T03:46:47.616Z,0.00
2022-10-23T03:47:47.617Z,0.00
2022-10-23T03:48:47.581Z,0.00
2022-10-23T03:49:47.567Z,0.00
2022-10-23T03:50:47.570Z,0.00
2022-10-23T03:51:47.535Z,0.00
2022-10-23T03:52:47.580Z,0.00
2022-10-23T03:53:47.623Z,0.00
2022-10-23T03:54:47.554Z,0.00
2022-10-23T03:55:47.479Z,0.00
2022-10-23T03:56:47.465Z,0.00
2022-10-23T03:57:47.452Z,0.00
2022-10-23T03:58:47.446Z,0.00
2022-10-23T03:59:47.464Z,0.00
2022-10-23T04:00:47.446Z,0.00
2022-10-23T04:01:47.555Z,0.00
2022-10-23T04:02:47.848Z,0.00
2022-10-23T04:03:47.393Z,0.00
2022-10-23T04:04:47.376Z,0.00
2022-10-23T04:05:49.982Z,0.00
2022-10-23T04:06:47.357Z,0.00
2022-10-23T04:07:47.326Z,0.00
2022-10-23T04:08:47.305Z,0.00
2022-10-23T04:09:47.301Z,0.00
2022-10-23T04:10:47.291Z,0.00
2022-10-23T04:11:47.287Z,0.00
2022-10-23T04:12:47.253Z,0.00
2022-10-23T04:13:47.237Z,0.00
2022-10-23T04:14:47.228Z,0.00
2022-10-23T04:15:47.358Z,0.00
2022-10-23T04:16:47.207Z,0.00
2022-10-23T04:17:47.297Z,0.00
2022-10-23T04:18:47.179Z,0.00
2022-10-23T04:19:47.179Z,0.00
2022-10-23T04:20:47.148Z,0.00
2022-10-23T04:21:47.157Z,0.00
2022-10-23T04:22:47.142Z,0.00
2022-10-23T04:23:47.168Z,0.00
2022-10-23T04:24:47.099Z,0.00
2022-10-23T04:26:47.068Z,0.00
2022-10-23T04:27:47.068Z,0.00
2022-10-23T04:28:47.053Z,0.00
2022-10-23T04:29:47.168Z,0.00
2022-10-23T04:30:47.021Z,0.00
2022-10-23T04:31:47.017Z,0.00
2022-10-23T04:32:46.993Z,0.00
2022-10-23T04:33:46.972Z,0.00
2022-10-23T04:34:46.977Z,0.00
2022-10-23T04:35:46.984Z,0.00
2022-10-23T04:36:46.943Z,0.00
2022-10-23T04:37:46.923Z,0.00
2022-10-23T04:38:46.929Z,0.00
2022-10-23T04:39:46.932Z,0.00
2022-10-23T04:40:46.916Z,0.00
2022-10-23T04:41:46.894Z,0.00
2022-10-23T04:42:46.855Z,0.00
2022-10-23T04:43:46.854Z,0.00
2022-10-23T04:44:46.836Z,0.00
2022-10-23T04:45:46.828Z,0.00
2022-10-23T04:46:47.048Z,0.00
2022-10-23T04:47:46.830Z,0.00
2022-10-23T04:48:46.779Z,0.00
2022-10-23T04:49:46.788Z,0.00
2022-10-23T04:51:46.750Z,0.00
2022-10-23T04:52:46.731Z,0.00
2022-10-23T04:53:46.746Z,0.00
2022-10-23T04:54:46.698Z,0.00
2022-10-23T04:55:46.699Z,0.00
2022-10-23T04:56:46.680Z,0.00
2022-10-23T04:57:46.661Z,0.00
2022-10-23T04:58:46.652Z,0.00
2022-10-23T04:59:46.768Z,0.00
2022-10-23T05:00:46.685Z,0.00
2022-10-23T05:01:46.767Z,0.00
2022-10-23T05:02:46.600Z,0.00
2022-10-23T05:03:46.590Z,0.00
2022-10-23T05:04:46.579Z,0.00
2022-10-23T05:05:46.627Z,0.00
2022-10-23T05:06:46.552Z,0.00
2022-10-23T05:07:46.594Z,0.00
2022-10-23T05:08:46.530Z,0.00
2022-10-23T05:09:46.583Z,0.00
2022-10-23T05:10:46.493Z,0.00
2022-10-23T05:11:46.591Z,0.00
2022-10-23T05:12:46.481Z,0.00
2022-10-23T05:13:46.477Z,0.00
2022-10-23T05:14:46.465Z,0.00
2022-10-23T05:15:46.444Z,0.00
2022-10-23T05:16:46.413Z,0.00
2022-10-23T05:17:46.453Z,0.00
2022-10-23T05:18:46.385Z,0.00
2022-10-23T05:19:46.375Z,0.00
2022-10-23T05:20:46.376Z,0.00
2022-10-23T05:21:46.350Z,0.00
2022-10-23T05:22:46.335Z,0.00
2022-10-23T05:23:46.492Z,0.00
2022-10-23T05:24:49.685Z,0.00
2022-10-23T05:25:46.539Z,0.00
2022-10-23T05:26:46.278Z,0.00
2022-10-23T05:27:46.266Z,0.00
2022-10-23T05:28:46.289Z,0.00
2022-10-23T05:29:46.288Z,0.00
2022-10-23T05:30:46.246Z,1.00
2022-10-23T05:31:46.221Z,1.00
2022-10-23T05:32:46.434Z,1.00
2022-10-23T05:33:46.196Z,1.00
2022-10-23T05:34:46.171Z,1.00
2022-10-23T05:35:46.206Z,0.00
2022-10-23T05:36:46.171Z,0.00
2022-10-23T05:37:46.142Z,0.00
2022-10-23T05:38:46.129Z,0.00
2022-10-23T05:39:46.121Z,2.00
2022-10-23T05:40:46.104Z,2.00
2022-10-23T05:41:46.205Z,2.00
2022-10-23T05:42:46.467Z,2.00
2022-10-23T05:43:46.064Z,4.00
2022-10-23T05:44:46.065Z,0.00
2022-10-23T05:45:46.034Z,4.00
2022-10-23T05:46:46.036Z,2.00
2022-10-23T05:47:46.139Z,6.00
2022-10-23T05:48:46.036Z,5.00
2022-10-23T05:49:45.995Z,9.00
2022-10-23T05:50:45.965Z,15.00
2022-10-23T05:51:45.984Z,13.00
2022-10-23T05:52:46.031Z,20.00
2022-10-23T05:53:45.964Z,23.00
2022-10-23T05:54:45.949Z,18.00
2022-10-23T05:55:45.902Z,31.00
2022-10-23T05:56:45.892Z,32.00
2022-10-23T05:57:46.139Z,28.00
2022-10-23T05:58:45.869Z,43.00
2022-10-23T05:59:45.978Z,50.00
2022-10-23T06:00:45.847Z,42.00
2022-10-23T06:01:45.901Z,59.00
2022-10-23T06:02:45.810Z,69.00
2022-10-23T06:03:45.817Z,76.00
2022-10-23T06:04:45.789Z,82.00
2022-10-23T06:05:45.906Z,90.00
2022-10-23T06:06:45.759Z,91.00
2022-10-23T06:07:45.861Z,103.00
2022-10-23T06:08:45.735Z,114.00
2022-10-23T06:09:45.734Z,118.00
2022-10-23T06:10:45.757Z,123.00
2022-10-23T06:11:45.816Z,133.00
2022-10-23T06:12:46.662Z,146.00
2022-10-23T06:13:45.717Z,160.00
2022-10-23T06:14:45.655Z,179.00
2022-10-23T06:15:45.653Z,191.00
2022-10-23T06:16:45.634Z,194.00
2022-10-23T06:17:45.916Z,217.00
2022-10-23T06:18:45.594Z,230.00
2022-10-23T06:19:45.605Z,253.00
2022-10-23T06:20:45.575Z,268.00
2022-10-23T06:21:45.567Z,277.00
2022-10-23T06:22:45.850Z,290.00
2022-10-23T06:23:45.693Z,318.00
2022-10-23T06:24:45.533Z,329.00
2022-10-23T06:25:45.532Z,340.00
2022-10-23T06:26:45.497Z,350.00
2022-10-23T06:27:45.490Z,373.00
2022-10-23T06:28:45.474Z,378.00
2022-10-23T06:29:45.519Z,396.00
2022-10-23T06:30:45.449Z,395.00
2022-10-23T06:31:45.454Z,408.00
2022-10-23T06:32:45.662Z,422.00
2022-10-23T06:33:45.410Z,431.00
2022-10-23T06:34:45.389Z,462.00
2022-10-23T06:35:45.404Z,467.00
2022-10-23T06:36:45.371Z,496.00
2022-10-23T06:37:45.353Z,514.00
2022-10-23T06:38:45.331Z,532.00
2022-10-23T06:39:45.342Z,564.00
2022-10-23T06:40:45.312Z,591.00
2022-10-23T06:41:45.417Z,625.00
2022-10-23T06:42:45.497Z,656.00
2022-10-23T06:43:45.283Z,692.00
2022-10-23T06:44:45.267Z,730.00
2022-10-23T06:45:45.251Z,769.00
2022-10-23T06:46:45.245Z,808.00
2022-10-23T06:47:45.662Z,846.00
2022-10-23T06:48:45.217Z,891.00
2022-10-23T06:49:45.213Z,936.00
2022-10-23T06:50:45.186Z,983.00
2022-10-23T06:51:45.179Z,1008.00
2022-10-23T06:52:47.677Z,1054.00
2022-10-23T06:53:45.174Z,1090.00
2022-10-23T06:54:45.185Z,1128.00
2022-10-23T06:55:45.150Z,1168.00
2022-10-23T06:56:45.106Z,1208.00
2022-10-23T06:57:45.398Z,1260.00
2022-10-23T06:58:45.101Z,1304.00
2022-10-23T06:59:45.109Z,1333.00
2022-10-23T07:00:45.129Z,1364.00
2022-10-23T07:01:45.228Z,1402.00
2022-10-23T07:02:45.127Z,1441.00
2022-10-23T07:03:45.051Z,1461.00
2022-10-23T07:04:45.020Z,1503.00
2022-10-23T07:05:45.103Z,1538.00
2022-10-23T07:06:44.990Z,1574.00
2022-10-23T07:07:44.970Z,1623.00
2022-10-23T07:08:44.951Z,1682.00
2022-10-23T07:09:44.961Z,1748.00
2022-10-23T07:10:44.960Z,1816.00
2022-10-23T07:11:45.056Z,1874.00
2022-10-23T07:12:45.250Z,1945.00
2022-10-23T07:13:44.900Z,2007.00
2022-10-23T07:14:44.893Z,2061.00
2022-10-23T07:15:44.890Z,2110.00
2022-10-23T07:16:44.886Z,2146.00
2022-10-23T07:17:44.875Z,2182.00
2022-10-23T07:18:44.844Z,2208.00
2022-10-23T07:19:44.815Z,2214.00
2022-10-23T07:20:44.816Z,2227.00
2022-10-23T07:21:44.836Z,2230.00
2022-10-23T07:22:45.155Z,2216.00
2022-10-23T07:23:44.881Z,2200.00
2022-10-23T07:24:44.754Z,2196.00
2022-10-23T07:25:44.746Z,2191.00
2022-10-23T07:26:44.819Z,2191.00
2022-10-23T07:27:45.040Z,2212.00
2022-10-23T07:28:44.705Z,2217.00
2022-10-23T07:29:44.711Z,2258.00
2022-10-23T07:30:45.636Z,2296.00
2022-10-23T07:31:44.664Z,2321.00
2022-10-23T07:32:44.657Z,2358.00
2022-10-23T07:33:44.629Z,2383.00
2022-10-23T07:34:44.631Z,2421.00
2022-10-23T07:35:44.642Z,2463.00
2022-10-23T07:36:44.602Z,2500.00
2022-10-23T07:37:44.971Z,2553.00
2022-10-23T07:38:44.571Z,2623.00
2022-10-23T07:39:44.561Z,2671.00
2022-10-23T07:40:44.553Z,2733.00
2022-10-23T07:41:44.642Z,2805.00
2022-10-23T07:42:44.521Z,2854.00
2022-10-23T07:43:44.502Z,2925.00
2022-10-23T07:44:44.504Z,2986.00
2022-10-23T07:45:44.482Z,3048.00
2022-10-23T07:46:44.473Z,3136.00
2022-10-23T07:47:44.794Z,3236.00
2022-10-23T07:48:44.459Z,3355.00
2022-10-23T07:49:44.446Z,3490.00
2022-10-23T07:50:45.401Z,3625.00
2022-10-23T07:51:48.954Z,3754.00
2022-10-23T07:52:45.719Z,3886.00
2022-10-23T07:53:44.406Z,3998.00
2022-10-23T07:54:44.376Z,4114.00
2022-10-23T07:55:44.375Z,4217.00
2022-10-23T07:56:44.344Z,4316.00
2022-10-23T07:57:44.331Z,4378.00
2022-10-23T07:58:44.375Z,4463.00
2022-10-23T07:59:44.323Z,4543.00
2022-10-23T08:00:44.308Z,4592.00
2022-10-23T08:01:44.416Z,4640.00
2022-10-23T08:02:44.457Z,4686.00
2022-10-23T08:03:44.253Z,4730.00
2022-10-23T08:04:44.319Z,4761.00
2022-10-23T08:05:44.219Z,4791.00
2022-10-23T08:06:44.226Z,4830.00
2022-10-23T08:07:45.030Z,4871.00
2022-10-23T08:09:44.171Z,4921.00
2022-10-23T08:10:44.271Z,4942.00
2022-10-23T08:11:44.155Z,4957.00
2022-10-23T08:12:44.343Z,4971.00
2022-10-23T08:13:44.133Z,4992.00
2022-10-23T08:14:44.133Z,5050.00
2022-10-23T08:15:44.123Z,5093.00
2022-10-23T08:16:44.212Z,5150.00
2022-10-23T08:17:44.308Z,5207.00
2022-10-23T08:18:44.074Z,5288.00
2022-10-23T08:19:44.044Z,5340.00
2022-10-23T08:20:44.050Z,5399.00
2022-10-23T08:21:44.023Z,5441.00
2022-10-23T08:22:44.045Z,5492.00
2022-10-23T08:23:44.007Z,5513.00
2022-10-23T08:24:44.025Z,5562.00
2022-10-23T08:25:43.977Z,5598.00
2022-10-23T08:26:43.989Z,5623.00
2022-10-23T08:27:44.202Z,5654.00
2022-10-23T08:28:43.962Z,5686.00
2022-10-23T08:29:43.908Z,5706.00
2022-10-23T08:30:43.917Z,5732.00
2022-10-23T08:31:43.887Z,5759.00
2022-10-23T08:32:43.879Z,5751.00
2022-10-23T08:33:43.904Z,5772.00
2022-10-23T08:34:43.970Z,5774.00
2022-10-23T08:35:43.840Z,5770.00
2022-10-23T08:36:43.833Z,5756.00
2022-10-23T08:37:44.149Z,5772.00
2022-10-23T08:38:43.816Z,5766.00
2022-10-23T08:39:43.803Z,5780.00
2022-10-23T08:40:43.802Z,5817.00
2022-10-23T08:41:43.764Z,5839.00
2022-10-23T08:42:45.068Z,5867.00
2022-10-23T08:43:43.763Z,5886.00
2022-10-23T08:44:43.726Z,5903.00
2022-10-23T08:45:43.713Z,5895.00
2022-10-23T08:46:43.813Z,5912.00
2022-10-23T08:47:43.702Z,5927.00
2022-10-23T08:48:43.674Z,5947.00
2022-10-23T08:49:43.684Z,5993.00
2022-10-23T08:50:43.654Z,6038.00
2022-10-23T08:51:43.634Z,6101.00
2022-10-23T08:52:44.058Z,6177.00
2022-10-23T08:53:43.640Z,6284.00
2022-10-23T08:54:43.863Z,6402.00
2022-10-23T08:55:43.576Z,6499.00
2022-10-23T08:56:43.566Z,6602.00
2022-10-23T08:57:43.741Z,6700.00
2022-10-23T08:58:43.611Z,6762.00
2022-10-23T08:59:43.557Z,6825.00
2022-10-23T09:00:43.620Z,6868.00
2022-10-23T09:01:43.606Z,6902.00
2022-10-23T09:02:43.740Z,6938.00
2022-10-23T09:03:43.479Z,6972.00
2022-10-23T09:04:43.850Z,7010.00
2022-10-23T09:05:43.451Z,7062.00
2022-10-23T09:06:43.472Z,7097.00
2022-10-23T09:07:43.556Z,7158.00
2022-10-23T09:08:43.421Z,7219.00
2022-10-23T09:09:43.431Z,7251.00
2022-10-23T09:10:44.516Z,7303.00
2022-10-23T09:11:43.385Z,7303.00
2022-10-23T09:12:44.321Z,7324.00
2022-10-23T09:13:43.864Z,7320.00
2022-10-23T09:14:43.332Z,7321.00
2022-10-23T09:15:43.331Z,7344.00
2022-10-23T09:16:43.344Z,7376.00
2022-10-23T09:17:43.514Z,7402.00
2022-10-23T09:18:43.293Z,7444.00
2022-10-23T09:19:43.274Z,7437.00
2022-10-23T09:20:43.266Z,7454.00
2022-10-23T09:21:43.257Z,7462.00
2022-10-23T09:22:43.266Z,7462.00
2022-10-23T09:23:44.037Z,7467.00
2022-10-23T09:24:43.226Z,7450.00
2022-10-23T09:25:43.196Z,7418.00
2022-10-23T09:26:43.187Z,7374.00
2022-10-23T09:27:43.511Z,7350.00
2022-10-23T09:28:43.269Z,7304.00
2022-10-23T09:29:43.140Z,7270.00
2022-10-23T09:30:43.163Z,7223.00
2022-10-23T09:31:43.166Z,7197.00
2022-10-23T09:32:43.108Z,7170.00
2022-10-23T09:33:43.099Z,7139.00
2022-10-23T09:34:43.124Z,7086.00
2022-10-23T09:35:43.063Z,7020.00
2022-10-23T09:36:43.119Z,6898.00
2022-10-23T09:37:43.267Z,6810.00
2022-10-23T09:38:43.031Z,6715.00
2022-10-23T09:39:43.023Z,6667.00
2022-10-23T09:40:43.033Z,6641.00
2022-10-23T09:41:42.994Z,6681.00
2022-10-23T09:42:43.015Z,6789.00
2022-10-23T09:43:42.955Z,6875.00
2022-10-23T09:44:42.957Z,6956.00
2022-10-23T09:45:43.213Z,7037.00
2022-10-23T09:46:43.028Z,7082.00
2022-10-23T09:47:43.175Z,7155.00
2022-10-23T09:48:42.995Z,7275.00
2022-10-23T09:49:42.899Z,7387.00
2022-10-23T09:50:42.888Z,7533.00
2022-10-23T09:51:42.866Z,7743.00
2022-10-23T09:52:42.876Z,7937.00
2022-10-23T09:53:42.837Z,8146.00
2022-10-23T09:54:42.817Z,8302.00
2022-10-23T09:55:42.811Z,8434.00
2022-10-23T09:56:42.829Z,8547.00
2022-10-23T09:57:43.303Z,8652.00
2022-10-23T09:58:42.792Z,8728.00
2022-10-23T09:59:42.778Z,8744.00
2022-10-23T10:00:43.017Z,8754.00
2022-10-23T10:01:42.816Z,8733.00
2022-10-23T10:02:42.720Z,8716.00
2022-10-23T10:03:42.701Z,8700.00
2022-10-23T10:04:42.741Z,8665.00
2022-10-23T10:05:42.691Z,8644.00
2022-10-23T10:06:42.708Z,8602.00
2022-10-23T10:07:42.864Z,8611.00
2022-10-23T10:08:42.657Z,8568.00
2022-10-23T10:09:42.634Z,8562.00
2022-10-23T10:10:42.644Z,8517.00
2022-10-23T10:11:42.593Z,8491.00
2022-10-23T10:12:42.604Z,8455.00
2022-10-23T10:13:42.586Z,8435.00
2022-10-23T10:14:42.596Z,8421.00
2022-10-23T10:15:42.546Z,8401.00
2022-10-23T10:16:42.648Z,8386.00
2022-10-23T10:17:42.817Z,8392.00
2022-10-23T10:18:42.507Z,8435.00
2022-10-23T10:19:42.507Z,8475.00
2022-10-23T10:20:42.489Z,8534.00
2022-10-23T10:21:42.485Z,8607.00
2022-10-23T10:22:42.579Z,8669.00
2022-10-23T10:23:42.456Z,8788.00
2022-10-23T10:24:42.429Z,8880.00
2022-10-23T10:25:43.373Z,8964.00
2022-10-23T10:26:42.408Z,9008.00
2022-10-23T10:27:42.766Z,9062.00
2022-10-23T10:28:42.488Z,9102.00
2022-10-23T10:29:42.374Z,9101.00
2022-10-23T10:30:42.367Z,9120.00
2022-10-23T10:31:42.342Z,9099.00
2022-10-23T10:32:42.350Z,9063.00
2022-10-23T10:33:42.311Z,9032.00
2022-10-23T10:34:42.332Z,8991.00
2022-10-23T10:35:42.295Z,8981.00
2022-10-23T10:36:42.607Z,9016.00
2022-10-23T10:37:43.893Z,9045.00
2022-10-23T10:38:42.254Z,9101.00
2022-10-23T10:39:42.236Z,9148.00
2022-10-23T10:40:42.246Z,9152.00
2022-10-23T10:41:42.253Z,9165.00
2022-10-23T10:42:42.195Z,9125.00
2022-10-23T10:43:42.198Z,9075.00
2022-10-23T10:44:42.171Z,9015.00
2022-10-23T10:45:42.158Z,8941.00
2022-10-23T10:46:42.179Z,8834.00
2022-10-23T10:47:42.406Z,8717.00
2022-10-23T10:48:42.118Z,8632.00
2022-10-23T10:49:42.111Z,8542.00
2022-10-23T10:50:42.100Z,8445.00
2022-10-23T10:51:42.079Z,8288.00
2022-10-23T10:52:45.416Z,8084.00
2022-10-23T10:53:43.080Z,7890.00
2022-10-23T10:54:42.041Z,7726.00
2022-10-23T10:55:42.045Z,7607.00
2022-10-23T10:56:42.026Z,7541.00
2022-10-23T10:57:42.417Z,7444.00
2022-10-23T10:58:42.014Z,7315.00
2022-10-23T10:59:42.932Z,7144.00
2022-10-23T11:00:42.074Z,6938.00
2022-10-23T11:01:42.055Z,6713.00
2022-10-23T11:02:41.944Z,6529.00
2022-10-23T11:03:41.934Z,6401.00
2022-10-23T11:04:41.961Z,6304.00
2022-10-23T11:05:42.750Z,6268.00
2022-10-23T11:06:41.887Z,6276.00
2022-10-23T11:07:42.126Z,6332.00
2022-10-23T11:08:56.322Z,6412.00
2022-10-23T11:09:43.138Z,6453.00
2022-10-23T11:10:41.827Z,6431.00
2022-10-23T11:11:41.818Z,6354.00
2022-10-23T11:12:41.808Z,6192.00
2022-10-23T11:13:41.799Z,6071.00
2022-10-23T11:14:42.464Z,6026.00
2022-10-23T11:15:41.845Z,6068.00
2022-10-23T11:16:41.761Z,6222.00
2022-10-23T11:17:42.147Z,6489.00
2022-10-23T11:18:41.724Z,6744.00
2022-10-23T11:19:41.731Z,7014.00
2022-10-23T11:20:41.708Z,7267.00
2022-10-23T11:21:41.722Z,7457.00
2022-10-23T11:22:41.920Z,7611.00
2022-10-23T11:23:41.955Z,7730.00
2022-10-23T11:24:43.146Z,7863.00
2022-10-23T11:25:41.645Z,7953.00
2022-10-23T11:26:41.624Z,7992.00
2022-10-23T11:27:42.121Z,7973.00
2022-10-23T11:28:41.594Z,7909.00
2022-10-23T11:29:41.609Z,7743.00
2022-10-23T11:30:41.576Z,7540.00
2022-10-23T11:31:41.566Z,7301.00
2022-10-23T11:32:41.539Z,7117.00
2022-10-23T11:33:43.960Z,7014.00
2022-10-23T11:34:41.518Z,6959.00
2022-10-23T11:35:41.528Z,6945.00
2022-10-23T11:36:41.488Z,6926.00
2022-10-23T11:37:41.735Z,6831.00
2022-10-23T11:38:42.018Z,6688.00
2022-10-23T11:39:41.551Z,6518.00
2022-10-23T11:40:41.481Z,6313.00
2022-10-23T11:41:41.430Z,6120.00
2022-10-23T11:42:41.776Z,6030.00
2022-10-23T11:43:41.400Z,5962.00
2022-10-23T11:44:41.402Z,5981.00
2022-10-23T11:45:41.502Z,6050.00
2022-10-23T11:46:41.364Z,6122.00
2022-10-23T11:47:41.612Z,6196.00
2022-10-23T11:48:41.331Z,6212.00
2022-10-23T11:49:41.342Z,6192.00
2022-10-23T11:50:41.317Z,6143.00
2022-10-23T11:51:41.333Z,6085.00
2022-10-23T11:52:50.740Z,6015.00
2022-10-23T11:53:42.264Z,5972.00
2022-10-23T11:54:42.066Z,5983.00
2022-10-23T11:55:41.246Z,6008.00
2022-10-23T11:56:41.229Z,6076.00
2022-10-23T11:57:41.240Z,6158.00
2022-10-23T11:58:41.209Z,6300.00
2022-10-23T11:59:41.198Z,6436.00
2022-10-23T12:00:41.179Z,6557.00
2022-10-23T12:01:41.205Z,6659.00
2022-10-23T12:02:41.599Z,6709.00
2022-10-23T12:03:41.252Z,6703.00
2022-10-23T12:04:41.133Z,6620.00
2022-10-23T12:05:41.113Z,6557.00
2022-10-23T12:06:41.098Z,6481.00
2022-10-23T12:07:41.211Z,6412.00
2022-10-23T12:08:41.084Z,6370.00
2022-10-23T12:09:41.093Z,6390.00
2022-10-23T12:10:41.045Z,6422.00
2022-10-23T12:11:41.056Z,6449.00
2022-10-23T12:12:41.060Z,6492.00
2022-10-23T12:13:41.060Z,6464.00
2022-10-23T12:14:40.988Z,6409.00
2022-10-23T12:15:41.017Z,6375.00
2022-10-23T12:16:40.971Z,6377.00
2022-10-23T12:17:41.128Z,6427.00
2022-10-23T12:18:40.942Z,6481.00
2022-10-23T12:19:40.938Z,6509.00
2022-10-23T12:20:40.914Z,6484.00
2022-10-23T12:21:41.018Z,6432.00
2022-10-23T12:22:40.895Z,6397.00
2022-10-23T12:23:43.258Z,6319.00
2022-10-23T12:24:41.863Z,6196.00
2022-10-23T12:25:40.863Z,6030.00
2022-10-23T12:26:40.840Z,5805.00
2022-10-23T12:27:41.647Z,5564.00
2022-10-23T12:28:40.811Z,5401.00
2022-10-23T12:29:40.803Z,5294.00
2022-10-23T12:30:40.799Z,5317.00
2022-10-23T12:31:44.263Z,5416.00
2022-10-23T12:32:42.159Z,5536.00
2022-10-23T12:33:40.761Z,5622.00
2022-10-23T12:34:40.734Z,5695.00
2022-10-23T12:35:40.719Z,5733.00
2022-10-23T12:36:40.707Z,5730.00
2022-10-23T12:37:40.795Z,5682.00
2022-10-23T12:38:40.760Z,5619.00
2022-10-23T12:39:40.686Z,5544.00
2022-10-23T12:40:40.710Z,5478.00
2022-10-23T12:41:40.641Z,5419.00
2022-10-23T12:42:40.863Z,5335.00
2022-10-23T12:43:41.323Z,5308.00
2022-10-23T12:44:40.710Z,5227.00
2022-10-23T12:45:40.625Z,5198.00
2022-10-23T12:46:40.575Z,5148.00